createdAt,value
2018-06-05T00:00:54.208Z,72.03
2018-06-05T00:03:24.205Z,71.61
2018-06-05T00:05:54.799Z,71.32
2018-06-05T00:08:24.819Z,71.56
2018-06-05T00:10:55.082Z,71.99
2018-06-05T00:13:25.167Z,72.07
2018-06-05T00:15:55.923Z,71.94
2018-06-05T00:18:25.780Z,72.15
2018-06-05T00:20:55.189Z,72.20
2018-06-05T00:23:24.654Z,72.14
2018-06-05T00:25:58.269Z,72.15
2018-06-05T00:28:27.692Z,72.09
2018-06-05T00:30:57.103Z,72.30
2018-06-05T00:33:26.649Z,72.26
2018-06-05T00:35:56.074Z,72.60
2018-06-05T00:38:25.444Z,72.32
2018-06-05T00:40:54.887Z,72.61
2018-06-05T00:43:24.300Z,73.32
2018-06-05T00:45:54.804Z,73.25
2018-06-05T00:48:24.398Z,73.16
2018-06-05T00:50:54.238Z,72.80
2018-06-05T00:53:23.606Z,72.24
2018-06-05T00:55:52.963Z,72.28
2018-06-05T00:58:22.363Z,72.62
2018-06-05T01:00:51.765Z,72.46
2018-06-05T01:03:21.157Z,71.45
2018-06-05T01:05:58.784Z,71.37
2018-06-05T01:08:28.156Z,71.37
2018-06-05T01:11:01.106Z,71.48
2018-06-05T01:13:30.587Z,71.50
2018-06-05T01:15:59.974Z,72.08
2018-06-05T01:18:29.386Z,71.85
2018-06-05T01:20:58.779Z,71.03
2018-06-05T01:23:28.869Z,70.18
2018-06-05T01:25:58.294Z,69.97
2018-06-05T01:28:27.673Z,70.09
2018-06-05T01:30:57.069Z,70.27
2018-06-05T01:33:26.567Z,70.52
2018-06-05T01:35:56.397Z,71.01
2018-06-05T01:38:25.751Z,71.30
2018-06-05T01:40:55.148Z,71.03
2018-06-05T01:43:24.528Z,71.23
2018-06-05T01:45:54.022Z,71.12
2018-06-05T01:48:23.396Z,71.72
2018-06-05T01:50:52.761Z,71.68
2018-06-05T01:53:22.616Z,71.91
2018-06-05T01:55:52.019Z,71.70
2018-06-05T01:58:21.372Z,71.91
2018-06-05T02:00:50.759Z,72.00
2018-06-05T02:03:20.145Z,72.14
2018-06-05T02:05:49.601Z,72.19
2018-06-05T02:08:19.487Z,72.78
2018-06-05T02:10:49.102Z,73.75
2018-06-05T02:13:24.869Z,74.74
2018-06-05T02:15:55.016Z,75.26
2018-06-05T02:18:26.032Z,75.67
2018-06-05T02:21:07.047Z,76.24
2018-06-05T02:23:36.416Z,76.05
2018-06-05T02:26:05.886Z,75.94
2018-06-05T02:28:35.377Z,75.99
2018-06-05T02:31:05.210Z,76.21
2018-06-05T02:33:34.556Z,75.95
2018-06-05T02:36:04.418Z,75.41
2018-06-05T02:38:33.794Z,75.61
2018-06-05T02:41:07.598Z,74.88
2018-06-05T02:43:36.968Z,75.04
2018-06-05T02:46:06.362Z,75.26
2018-06-05T02:48:36.408Z,75.18
2018-06-05T02:51:05.973Z,74.88
2018-06-05T02:53:35.401Z,74.17
2018-06-05T02:56:04.990Z,74.07
2018-06-05T02:58:34.376Z,73.49
2018-06-05T03:01:03.767Z,73.37
2018-06-05T03:03:33.167Z,73.50
2018-06-05T03:06:02.564Z,73.07
2018-06-05T03:08:32.017Z,72.69
2018-06-05T03:11:01.403Z,72.77
2018-06-05T03:13:30.776Z,72.76
2018-06-05T03:16:00.154Z,72.75
2018-06-05T03:18:29.745Z,72.81
2018-06-05T03:20:59.100Z,72.85
2018-06-05T03:23:28.566Z,73.18
2018-06-05T03:25:57.963Z,73.06
2018-06-05T03:28:27.347Z,72.71
2018-06-05T03:30:58.637Z,73.00
2018-06-05T03:33:28.009Z,72.79
2018-06-05T03:35:57.500Z,72.62
2018-06-05T03:38:26.876Z,73.13
2018-06-05T03:40:56.289Z,72.34
2018-06-05T03:43:25.705Z,71.84
2018-06-05T03:45:55.234Z,71.39
2018-06-05T03:48:24.596Z,71.39
2018-06-05T03:50:54.021Z,71.27
2018-06-05T03:53:24.136Z,70.76
2018-06-05T03:55:53.916Z,71.00
2018-06-05T03:58:23.314Z,70.36
2018-06-05T04:00:58.052Z,70.44
2018-06-05T04:03:27.537Z,71.26
2018-06-05T04:05:58.778Z,70.83
2018-06-05T04:08:28.215Z,71.62
2018-06-05T04:10:57.587Z,71.55
2018-06-05T04:13:26.953Z,71.92
2018-06-05T04:18:32.639Z,72.49
2018-06-05T04:21:05.405Z,71.95
2018-06-05T04:23:34.789Z,72.19
2018-06-05T04:26:04.260Z,72.09
2018-06-05T04:28:33.926Z,71.60
2018-06-05T04:31:03.432Z,71.69
2018-06-05T04:33:32.641Z,71.81
2018-06-05T04:36:02.098Z,71.51
2018-06-05T04:38:31.649Z,71.03
2018-06-05T04:41:01.079Z,71.53
2018-06-05T04:43:30.511Z,71.60
2018-06-05T04:46:00.168Z,71.49
2018-06-05T04:48:29.520Z,71.83
2018-06-05T04:50:59.006Z,71.35
2018-06-05T04:53:28.399Z,71.10
2018-06-05T04:55:58.078Z,70.47
2018-06-05T04:58:27.492Z,70.41
2018-06-05T05:00:56.909Z,69.36
2018-06-05T05:03:26.399Z,69.39
2018-06-05T05:06:03.100Z,68.95
2018-06-05T05:08:32.605Z,68.42
2018-06-05T05:11:02.902Z,68.46
2018-06-05T05:13:32.320Z,68.76
2018-06-05T05:16:01.803Z,67.92
2018-06-05T05:18:31.215Z,67.38
2018-06-05T05:21:00.672Z,66.98
2018-06-05T05:23:30.749Z,67.32
2018-06-05T05:26:00.354Z,67.65
2018-06-05T05:28:29.791Z,67.48
2018-06-05T05:31:12.265Z,67.64
2018-06-05T05:33:41.848Z,66.36
2018-06-05T05:36:11.272Z,66.12
2018-06-05T05:38:40.808Z,66.49
2018-06-05T05:41:10.324Z,65.97
2018-06-05T05:43:39.793Z,65.52
2018-06-05T05:46:09.211Z,65.67
2018-06-05T05:48:38.814Z,65.31
2018-06-05T05:51:08.228Z,65.01
2018-06-05T05:53:37.617Z,65.12
2018-06-05T05:56:07.046Z,65.24
2018-06-05T05:58:36.438Z,64.27
2018-06-05T06:01:05.906Z,64.29
2018-06-05T06:03:35.336Z,64.91
2018-06-05T06:06:04.720Z,65.09
2018-06-05T06:08:34.151Z,64.67
2018-06-05T06:11:03.543Z,64.74
2018-06-05T06:13:33.004Z,64.69
2018-06-05T06:16:03.206Z,64.22
2018-06-05T06:18:32.645Z,64.49
2018-06-05T06:21:02.109Z,63.71
2018-06-05T06:23:31.647Z,64.17
2018-06-05T06:26:01.065Z,63.50
2018-06-05T06:28:30.624Z,63.43
2018-06-05T06:31:05.685Z,63.03
2018-06-05T06:33:35.121Z,63.44
2018-06-05T06:36:04.559Z,63.90
2018-06-05T06:38:33.927Z,63.06
2018-06-05T06:41:03.532Z,62.77
2018-06-05T06:43:33.225Z,61.94
2018-06-05T06:46:02.643Z,61.89
2018-06-05T06:48:32.077Z,62.24
2018-06-05T06:51:01.690Z,61.56
2018-06-05T06:53:31.138Z,62.28
2018-06-05T06:56:00.573Z,61.99
2018-06-05T06:58:30.026Z,61.68
2018-06-05T07:00:59.429Z,61.29
2018-06-05T07:03:28.808Z,61.48
2018-06-05T07:05:58.246Z,61.05
2018-06-05T07:08:27.681Z,61.28
2018-06-05T07:10:57.097Z,59.97
2018-06-05T07:13:26.677Z,60.20
2018-06-05T07:15:56.129Z,59.44
2018-06-05T07:18:25.577Z,60.09
2018-06-05T07:20:54.968Z,60.52
2018-06-05T07:23:24.575Z,60.32
2018-06-05T07:25:54.095Z,60.45
2018-06-05T07:28:23.646Z,59.52
2018-06-05T07:30:53.127Z,59.60
2018-06-05T07:33:25.956Z,59.54
2018-06-05T07:35:55.373Z,59.26
2018-06-05T07:38:24.776Z,58.64
2018-06-05T07:40:56.297Z,57.79
2018-06-05T07:43:25.910Z,57.32
2018-06-05T07:45:55.459Z,57.83
2018-06-05T07:48:24.843Z,57.00
2018-06-05T07:50:54.246Z,56.50
2018-06-05T07:53:23.656Z,57.52
2018-06-05T07:55:53.060Z,57.01
2018-06-05T07:58:22.572Z,56.49
2018-06-05T08:00:51.955Z,55.97
2018-06-05T08:03:21.398Z,56.20
2018-06-05T08:05:50.862Z,55.35
2018-06-05T08:08:20.237Z,54.74
2018-06-05T08:10:49.616Z,54.33
2018-06-05T08:13:19.023Z,54.73
2018-06-05T08:15:48.427Z,55.20
2018-06-05T08:18:17.853Z,55.55
2018-06-05T08:20:47.230Z,55.17
2018-06-05T08:23:16.629Z,53.93
2018-06-05T08:25:46.033Z,53.19
2018-06-05T08:28:15.487Z,53.66
2018-06-05T08:30:44.922Z,54.17
2018-06-05T08:33:14.314Z,53.84
2018-06-05T08:35:43.709Z,53.93
2018-06-05T08:38:13.116Z,53.00
2018-06-05T08:40:42.514Z,54.03
2018-06-05T08:43:11.912Z,53.03
2018-06-05T08:45:41.308Z,54.03
2018-06-05T08:48:10.729Z,53.90
2018-06-05T08:50:40.175Z,53.58
2018-06-05T08:53:09.578Z,52.94
2018-06-05T08:55:39.023Z,52.07
2018-06-05T08:58:09.382Z,52.39
2018-06-05T09:00:38.778Z,52.10
2018-06-05T09:03:08.176Z,51.76
2018-06-05T09:05:37.598Z,51.53
2018-06-05T09:08:07.001Z,51.29
2018-06-05T09:10:36.460Z,52.16
2018-06-05T09:13:05.859Z,51.14
2018-06-05T09:15:35.334Z,50.82
2018-06-05T09:18:04.780Z,49.87
2018-06-05T09:20:34.184Z,49.59
2018-06-05T09:23:03.622Z,49.46
2018-06-05T09:25:32.998Z,49.01
2018-06-05T09:28:02.400Z,49.79
2018-06-05T09:30:31.804Z,48.97
2018-06-05T09:33:01.190Z,47.98
2018-06-05T09:35:32.262Z,48.68
2018-06-05T09:38:01.684Z,48.04
2018-06-05T09:40:33.570Z,47.38
2018-06-05T09:43:03.134Z,46.37
2018-06-05T09:45:32.644Z,47.19
2018-06-05T09:48:02.005Z,46.82
2018-06-05T09:50:31.794Z,46.09
2018-06-05T09:53:01.917Z,45.91
2018-06-05T09:55:31.631Z,45.96
2018-06-05T09:58:01.053Z,46.09
2018-06-05T10:00:35.799Z,45.64
2018-06-05T10:03:05.197Z,45.67
2018-06-05T10:05:34.661Z,44.91
2018-06-05T10:08:04.393Z,45.05
2018-06-05T10:10:33.841Z,45.28
2018-06-05T10:13:03.336Z,45.15
2018-06-05T10:15:32.771Z,43.63
2018-06-05T10:18:02.134Z,42.60
2018-06-05T10:20:31.909Z,42.81
2018-06-05T10:23:01.337Z,41.19
2018-06-05T10:25:30.713Z,41.41
2018-06-05T10:28:00.090Z,42.67
2018-06-05T10:30:29.462Z,42.75
2018-06-05T10:32:58.885Z,44.05
2018-06-05T10:35:30.201Z,43.80
2018-06-05T10:38:02.064Z,42.57
2018-06-05T10:40:31.556Z,41.96
2018-06-05T10:43:00.980Z,41.50
2018-06-05T10:45:30.379Z,40.01
2018-06-05T10:47:59.767Z,40.31
2018-06-05T10:50:29.167Z,39.47
2018-06-05T10:52:58.604Z,39.96
2018-06-05T10:55:30.948Z,39.96
2018-06-05T10:58:00.346Z,40.01
2018-06-05T11:00:29.837Z,39.54
2018-06-05T11:02:59.459Z,38.06
2018-06-05T11:05:30.824Z,37.89
2018-06-05T11:08:00.209Z,37.43
2018-06-05T11:10:35.154Z,37.45
2018-06-05T11:13:06.580Z,37.67
2018-06-05T11:15:36.979Z,36.94
2018-06-05T11:18:06.464Z,35.81
2018-06-05T11:20:35.865Z,36.60
2018-06-05T11:23:05.368Z,35.59
2018-06-05T11:25:34.773Z,35.17
2018-06-05T11:28:04.183Z,35.63
2018-06-05T11:30:33.592Z,34.75
2018-06-05T11:33:03.084Z,34.78
2018-06-05T11:35:32.469Z,34.96
2018-06-05T11:38:01.957Z,34.47
2018-06-05T11:40:34.542Z,34.49
2018-06-05T11:43:05.627Z,34.67
2018-06-05T11:45:35.522Z,35.92
2018-06-05T11:48:05.092Z,36.39
2018-06-05T11:50:34.555Z,36.42
2018-06-05T11:53:04.039Z,37.61
2018-06-05T11:55:33.543Z,38.73
2018-06-05T11:58:03.099Z,39.43
2018-06-05T12:00:32.561Z,39.12
2018-06-05T12:03:01.988Z,39.12
2018-06-05T12:05:31.788Z,38.12
2018-06-05T12:08:01.299Z,36.87
2018-06-05T12:10:30.749Z,35.16
2018-06-05T12:13:00.209Z,33.70
2018-06-05T12:15:29.882Z,35.63
2018-06-05T12:17:59.423Z,35.87
2018-06-05T12:20:32.275Z,35.30
2018-06-05T12:23:01.714Z,35.50
2018-06-05T12:25:31.157Z,35.78
2018-06-05T12:28:00.485Z,35.16
2018-06-05T12:30:29.985Z,35.62
2018-06-05T12:32:59.332Z,35.72
2018-06-05T12:35:29.943Z,34.18
2018-06-05T12:37:59.445Z,34.08
2018-06-05T12:40:29.245Z,33.82
2018-06-05T12:42:58.744Z,33.96
2018-06-05T12:45:28.186Z,35.22
2018-06-05T12:47:57.593Z,35.69
2018-06-05T12:50:29.752Z,36.51
2018-06-05T12:52:59.141Z,37.47
2018-06-05T12:55:31.483Z,36.82
2018-06-05T12:58:00.951Z,35.45
2018-06-05T13:00:30.732Z,35.98
2018-06-05T13:03:00.230Z,35.74
2018-06-05T13:05:30.038Z,35.11
2018-06-05T13:07:59.657Z,35.25
2018-06-05T13:10:29.083Z,35.37
2018-06-05T13:12:58.469Z,35.06
2018-06-05T13:15:28.161Z,34.36
2018-06-05T13:17:57.721Z,34.89
2018-06-05T13:20:27.205Z,35.32
2018-06-05T13:22:56.765Z,34.37
2018-06-05T13:25:30.613Z,34.46
2018-06-05T13:28:00.093Z,36.90
2018-06-05T13:30:31.751Z,35.07
2018-06-05T13:33:01.167Z,33.97
2018-06-05T13:35:32.545Z,33.86
2018-06-05T13:38:01.959Z,31.50
2018-06-05T13:40:31.400Z,36.85
2018-06-05T13:43:00.829Z,39.61
2018-06-05T13:45:30.453Z,40.73
2018-06-05T13:47:59.979Z,40.91
2018-06-05T13:50:29.456Z,40.62
2018-06-05T13:52:58.872Z,39.90
2018-06-05T13:55:29.379Z,41.16
2018-06-05T13:57:58.816Z,40.17
2018-06-05T14:00:29.534Z,40.40
2018-06-05T14:02:58.904Z,39.69
2018-06-05T14:05:30.212Z,39.75
2018-06-05T14:07:59.658Z,38.69
2018-06-05T14:10:29.427Z,38.60
2018-06-05T14:12:58.770Z,37.01
2018-06-05T14:15:28.173Z,37.27
2018-06-05T14:17:57.579Z,37.39
2018-06-05T14:20:29.779Z,37.41
2018-06-05T14:22:59.179Z,37.61
2018-06-05T14:25:28.578Z,36.01
2018-06-05T14:27:58.021Z,35.81
2018-06-05T14:30:27.640Z,36.18
2018-06-05T14:32:57.056Z,35.97
2018-06-05T14:35:26.570Z,34.05
2018-06-05T14:37:56.094Z,33.94
2018-06-05T14:40:27.725Z,33.22
2018-06-05T14:42:57.124Z,33.03
2018-06-05T14:45:26.667Z,34.05
2018-06-05T14:47:56.250Z,33.38
2018-06-05T14:50:26.150Z,33.17
2018-06-05T14:52:55.547Z,31.90
2018-06-05T14:55:26.564Z,32.82
2018-06-05T14:57:55.972Z,32.78
2018-06-05T15:00:29.093Z,32.12
2018-06-05T15:02:58.480Z,32.32
2018-06-05T15:05:30.473Z,33.35
2018-06-05T15:07:59.892Z,33.38
2018-06-05T15:10:29.276Z,34.78
2018-06-05T15:12:58.768Z,35.86
2018-06-05T15:15:28.607Z,36.03
2018-06-05T15:17:57.996Z,36.16
2018-06-05T15:20:30.079Z,36.92
2018-06-05T15:23:08.624Z,36.13
2018-06-05T15:25:38.205Z,34.84
2018-06-05T15:28:08.652Z,35.94
2018-06-05T15:30:38.065Z,35.73
2018-06-05T15:33:07.475Z,34.81
2018-06-05T15:35:37.018Z,36.29
2018-06-05T15:38:06.423Z,35.87
2018-06-05T15:40:41.800Z,36.38
2018-06-05T15:43:11.231Z,36.83
2018-06-05T15:45:40.849Z,38.09
2018-06-05T15:48:10.820Z,38.49
2018-06-05T15:50:40.266Z,39.24
2018-06-05T15:53:09.744Z,39.71
2018-06-05T15:58:26.985Z,39.23
2018-06-05T16:00:56.413Z,40.37
2018-06-05T16:03:25.816Z,40.24
2018-06-05T16:05:55.696Z,41.13
2018-06-05T16:08:25.120Z,40.72
2018-06-05T16:10:54.557Z,40.36
2018-06-05T16:13:23.932Z,41.39
2018-06-05T16:15:53.360Z,41.42
2018-06-05T16:18:22.754Z,41.91
2018-06-05T16:20:52.132Z,42.46
2018-06-05T16:23:21.520Z,42.98
2018-06-05T16:25:50.942Z,42.70
2018-06-05T16:28:20.318Z,43.13
2018-06-05T16:30:56.103Z,42.99
2018-06-05T16:33:25.618Z,43.72
2018-06-05T16:35:55.189Z,43.33
2018-06-05T16:38:24.785Z,43.67
2018-06-05T16:40:54.169Z,45.00
2018-06-05T16:43:24.267Z,45.34
2018-06-05T16:45:54.356Z,44.77
2018-06-05T16:48:23.752Z,44.68
2018-06-05T16:50:53.401Z,45.01
2018-06-05T16:53:22.837Z,43.21
2018-06-05T16:55:52.303Z,43.44
2018-06-05T16:58:21.880Z,41.95
2018-06-05T17:00:51.767Z,43.50
2018-06-05T17:03:21.158Z,43.58
2018-06-05T17:05:51.278Z,44.16
2018-06-05T17:08:20.707Z,44.41
2018-06-05T17:10:50.164Z,45.44
2018-06-05T17:13:19.600Z,45.25
2018-06-05T17:15:49.017Z,45.06
2018-06-05T17:18:18.426Z,45.30
2018-06-05T17:20:47.802Z,45.27
2018-06-05T17:23:17.440Z,45.46
2018-06-05T17:25:46.827Z,45.50
2018-06-05T17:28:16.473Z,45.80
2018-06-05T17:30:45.893Z,45.76
2018-06-05T17:33:15.261Z,45.56
2018-06-05T17:35:45.138Z,45.62
2018-06-05T17:38:14.589Z,45.88
2018-06-05T17:40:44.006Z,45.38
2018-06-05T17:43:13.396Z,45.42
2018-06-05T17:45:43.797Z,46.14
2018-06-05T17:48:13.230Z,45.67
2018-06-05T17:50:42.606Z,45.69
2018-06-05T17:53:12.917Z,46.33
2018-06-05T17:55:42.489Z,45.93
2018-06-05T17:58:11.868Z,46.18
2018-06-05T18:00:44.731Z,46.29
2018-06-05T18:03:14.255Z,47.07
2018-06-05T18:05:48.740Z,47.25
2018-06-05T18:08:18.118Z,46.88
2018-06-05T18:10:47.688Z,47.15
2018-06-05T18:13:17.200Z,47.57
2018-06-05T18:15:46.617Z,47.13
2018-06-05T18:18:16.084Z,47.29
2018-06-05T18:20:46.125Z,48.03
2018-06-05T18:23:18.727Z,47.40
2018-06-05T18:25:54.664Z,47.49
2018-06-05T18:28:24.933Z,48.11
2018-06-05T18:30:54.370Z,47.86
2018-06-05T18:33:23.784Z,48.50
2018-06-05T18:35:53.224Z,47.85
2018-06-05T18:38:22.574Z,48.33
2018-06-05T18:40:51.953Z,48.40
2018-06-05T18:43:21.414Z,49.17
2018-06-05T18:45:50.861Z,49.40
2018-06-05T18:48:20.261Z,49.37
2018-06-05T18:50:49.656Z,49.83
2018-06-05T18:53:19.110Z,50.35
2018-06-05T18:55:48.573Z,49.90
2018-06-05T18:58:17.969Z,50.82
2018-06-05T19:03:30.064Z,50.76
2018-06-05T19:05:59.501Z,50.85
2018-06-05T19:08:29.303Z,51.79
2018-06-05T19:10:58.860Z,51.33
2018-06-05T19:13:28.235Z,51.54
2018-06-05T19:15:58.989Z,51.78
2018-06-05T19:18:28.372Z,51.90
2018-06-05T19:20:57.754Z,51.39
2018-06-05T19:23:27.212Z,51.55
2018-06-05T19:26:00.108Z,51.69
2018-06-05T19:28:30.141Z,52.17
2018-06-05T19:30:59.538Z,52.14
2018-06-05T19:33:29.044Z,52.31
2018-06-05T19:35:58.500Z,52.40
2018-06-05T19:38:27.915Z,52.04
2018-06-05T19:40:57.339Z,51.86
2018-06-05T19:43:26.732Z,52.40
2018-06-05T19:45:56.177Z,52.08
2018-06-05T19:48:25.672Z,52.62
2018-06-05T19:50:55.094Z,53.06
2018-06-05T19:53:24.529Z,54.55
2018-06-05T19:55:54.030Z,54.74
2018-06-05T19:58:23.638Z,55.66
2018-06-05T20:00:53.082Z,56.87
2018-06-05T20:03:22.445Z,56.90
2018-06-05T20:05:52.264Z,57.05
2018-06-05T20:08:21.724Z,57.60
2018-06-05T20:11:04.786Z,57.78
2018-06-05T20:13:34.197Z,58.21
2018-06-05T20:16:03.726Z,58.00
2018-06-05T20:18:33.151Z,58.45
2018-06-05T20:21:02.572Z,58.83
2018-06-05T20:23:31.972Z,58.88
2018-06-05T20:26:01.658Z,59.22
2018-06-05T20:28:31.497Z,59.19
2018-06-05T20:31:00.900Z,60.11
2018-06-05T20:33:34.632Z,59.95
2018-06-05T20:36:04.287Z,60.34
2018-06-05T20:38:33.665Z,61.09
2018-06-05T20:41:03.117Z,60.96
2018-06-05T20:43:32.522Z,61.75
2018-06-05T20:46:02.009Z,62.11
2018-06-05T20:48:31.549Z,61.73
2018-06-05T20:51:00.951Z,62.42
2018-06-05T20:53:30.451Z,62.92
2018-06-05T20:55:59.920Z,63.02
2018-06-05T20:58:29.475Z,63.48
2018-06-05T21:00:59.200Z,63.77
2018-06-05T21:03:28.578Z,63.46
2018-06-05T21:05:57.988Z,63.81
2018-06-05T21:08:27.539Z,62.79
2018-06-05T21:10:59.819Z,62.71
2018-06-05T21:13:29.224Z,62.71
2018-06-05T21:15:58.594Z,62.76
2018-06-05T21:18:28.135Z,63.42
2018-06-05T21:20:57.562Z,63.07
2018-06-05T21:23:27.178Z,63.02
2018-06-05T21:25:56.596Z,63.80
2018-06-05T21:28:26.049Z,63.41
2018-06-05T21:30:55.709Z,63.40
2018-06-05T21:33:25.096Z,63.63
2018-06-05T21:35:54.495Z,63.93
2018-06-05T21:38:23.921Z,64.02
2018-06-05T21:40:53.327Z,64.04
2018-06-05T21:43:22.696Z,64.33
2018-06-05T21:45:52.230Z,64.59
2018-06-05T21:48:21.642Z,64.56
2018-06-05T21:51:02.453Z,64.95
2018-06-05T21:53:31.819Z,65.14
2018-06-05T21:56:01.276Z,64.75
2018-06-05T21:58:30.646Z,64.94
2018-06-05T22:01:00.050Z,65.25
2018-06-05T22:03:29.447Z,64.92
2018-06-05T22:05:59.487Z,65.39
2018-06-05T22:08:29.033Z,65.04
2018-06-05T22:10:58.437Z,65.59
2018-06-05T22:13:27.966Z,65.18
2018-06-05T22:16:12.634Z,65.04
2018-06-05T22:18:42.072Z,64.59
2018-06-05T22:21:11.495Z,65.31
2018-06-05T22:23:41.568Z,65.23
2018-06-05T22:26:11.571Z,64.93
2018-06-05T22:28:40.974Z,64.88
2018-06-05T22:31:10.364Z,65.14
2018-06-05T22:33:40.277Z,65.43
2018-06-05T22:36:09.645Z,66.23
2018-06-05T22:38:39.012Z,66.36
2018-06-05T22:41:08.412Z,65.87
2018-06-05T22:43:37.833Z,66.25
2018-06-05T22:46:07.336Z,66.65
2018-06-05T22:48:36.836Z,66.77
2018-06-05T22:51:06.324Z,67.32
2018-06-05T22:53:35.729Z,66.81
2018-06-05T22:56:05.605Z,66.91
2018-06-05T22:58:35.048Z,67.15
2018-06-05T23:01:04.689Z,67.31
2018-06-05T23:03:34.107Z,66.95
2018-06-05T23:06:03.574Z,67.05
2018-06-05T23:08:33.009Z,66.88
2018-06-05T23:11:02.441Z,67.56
2018-06-05T23:13:31.843Z,67.83
2018-06-05T23:16:17.349Z,67.86
2018-06-05T23:18:46.810Z,67.89
2018-06-05T23:21:16.192Z,67.89
2018-06-05T23:23:45.632Z,68.39
2018-06-05T23:26:15.191Z,68.13
2018-06-05T23:28:44.624Z,68.50
2018-06-05T23:31:14.040Z,68.60
2018-06-05T23:33:43.803Z,69.15
2018-06-05T23:36:13.195Z,68.82
2018-06-05T23:38:42.821Z,68.65
2018-06-05T23:41:12.226Z,68.85
2018-06-05T23:43:41.582Z,68.79
2018-06-05T23:46:10.988Z,69.18
2018-06-05T23:48:40.403Z,68.83
2018-06-05T23:51:09.821Z,67.94
2018-06-05T23:53:39.270Z,67.30
2018-06-05T23:56:08.720Z,66.70
2018-06-05T23:58:39.202Z,67.06
